Time;durP1;ratioP1;P1;durP2;ratioP2;P2;SDS_P1;SDS_P2;PMS_P1;PMS_P2;Temp;Humidity;BMP_temperature;BMP_pressure;BME280_temperature;BME280_humidity;BME280_pressure;Samples;Min_cycle;Max_cycle;Signal;HPM_P1;HPM_P2
2021/08/08 00:00:50;;;;;;;0.40;0.20;;;;;;;17.40;100.00;99394.09;4994481;28;21054;-54
2021/08/08 00:03:17;;;;;;;0.40;0.20;;;;;;;17.27;100.00;99390.59;4995759;28;20457;-54
2021/08/08 00:05:43;;;;;;;1.03;1.03;;;;;;;17.36;100.00;99389.91;4990912;28;20478;-54
2021/08/08 00:08:12;;;;;;;0.40;0.20;;;;;;;17.34;100.00;99394.53;4992137;28;20454;-54
2021/08/08 00:10:39;;;;;;;0.40;0.20;;;;;;;17.22;100.00;99389.19;4995722;28;20528;-54
2021/08/08 00:13:06;;;;;;;0.40;0.20;;;;;;;17.28;100.00;99403.06;4995377;28;20829;-54
2021/08/08 00:15:34;;;;;;;0.40;0.20;;;;;;;17.34;100.00;99405.28;4994467;28;20474;-54
2021/08/08 00:18:03;;;;;;;0.40;0.20;;;;;;;17.55;100.00;99410.97;4995093;28;20542;-54
2021/08/08 00:20:30;;;;;;;0.40;0.20;;;;;;;17.38;100.00;99406.78;4995510;28;20453;-54
2021/08/08 00:22:56;;;;;;;0.40;0.20;;;;;;;17.29;100.00;99407.47;4995221;28;20567;-54
2021/08/08 00:25:23;;;;;;;0.40;0.20;;;;;;;17.13;100.00;99409.47;4995037;28;20509;-54
2021/08/08 00:27:51;;;;;;;0.40;0.30;;;;;;;17.13;100.00;99412.16;4995387;28;20467;-54
2021/08/08 00:30:18;;;;;;;0.40;0.20;;;;;;;17.37;100.00;99413.13;4995191;28;20991;-54
2021/08/08 00:32:45;;;;;;;0.40;0.20;;;;;;;17.16;100.00;99411.97;4994993;28;20445;-54
2021/08/08 00:35:12;;;;;;;0.40;0.20;;;;;;;17.16;100.00;99411.97;4994455;28;21014;-54
2021/08/08 00:37:44;;;;;;;0.40;0.20;;;;;;;17.13;100.00;99417.53;4993972;28;20938;-54
2021/08/08 00:40:13;;;;;;;0.40;0.20;;;;;;;17.55;100.00;99420.88;4993743;28;20477;-54
2021/08/08 00:42:42;;;;;;;0.40;0.30;;;;;;;17.24;100.00;99424.84;4994993;28;20532;-54
2021/08/08 00:45:09;;;;;;;0.40;0.20;;;;;;;17.17;100.00;99414.53;4981870;28;20521;-54
2021/08/08 00:47:36;;;;;;;0.40;0.20;;;;;;;17.53;100.00;99431.72;4995007;28;20449;-54
2021/08/08 00:50:04;;;;;;;0.40;0.20;;;;;;;17.38;100.00;99432.78;4994774;28;20453;-54
2021/08/08 00:52:33;;;;;;;0.40;0.20;;;;;;;16.98;100.00;99432.00;4988017;28;20545;-54
2021/08/08 00:55:00;;;;;;;0.40;0.20;;;;;;;17.02;100.00;99429.03;4994795;28;20477;-54
2021/08/08 00:57:26;;;;;;;0.40;0.30;;;;;;;17.00;100.00;99428.28;4994671;28;20449;-54
2021/08/08 00:59:53;;;;;;;0.40;0.20;;;;;;;16.91;100.00;99431.59;4994652;28;20453;-54
2021/08/08 01:02:20;;;;;;;0.40;0.20;;;;;;;16.88;100.00;99421.94;4994526;28;20489;-54
2021/08/08 01:05:01;;;;;;;0.70;0.70;;;;;;;17.01;100.00;99423.78;4994336;28;20484;-54
2021/08/08 01:07:35;;;;;;;0.40;0.30;;;;;;;16.93;100.00;99424.28;4986724;28;20492;-54
2021/08/08 01:10:03;;;;;;;0.40;0.20;;;;;;;16.85;100.00;99430.16;4994461;28;20487;-54
2021/08/08 01:12:31;;;;;;;0.40;0.30;;;;;;;16.81;100.00;99433.19;4994361;28;20524;-54
2021/08/08 01:14:58;;;;;;;0.40;0.20;;;;;;;16.84;100.00;99433.81;4994212;28;20482;-54
2021/08/08 01:17:26;;;;;;;0.40;0.20;;;;;;;16.99;100.00;99431.91;4994292;28;20474;-54
2021/08/08 01:19:57;;;;;;;0.40;0.20;;;;;;;17.10;100.00;99440.09;4994044;28;20461;-54
2021/08/08 01:22:30;;;;;;;0.40;0.20;;;;;;;16.87;100.00;99436.31;4993999;28;20555;-54
2021/08/08 01:24:58;;;;;;;0.40;0.20;;;;;;;16.74;100.00;99427.38;4993976;28;20489;-54
2021/08/08 01:27:27;;;;;;;0.40;0.20;;;;;;;16.76;100.00;99432.63;4994225;28;20500;-54
2021/08/08 01:29:55;;;;;;;0.50;0.30;;;;;;;16.82;100.00;99430.38;4993447;28;20457;-54
2021/08/08 01:32:23;;;;;;;0.40;0.20;;;;;;;16.79;100.00;99427.91;4993819;28;20487;-55
2021/08/08 01:34:49;;;;;;;0.40;0.20;;;;;;;16.70;100.00;99435.72;4994198;28;20473;-54
2021/08/08 01:37:17;;;;;;;0.40;0.20;;;;;;;16.63;100.00;99424.53;4992020;28;20493;-54
2021/08/08 01:39:48;;;;;;;0.40;0.20;;;;;;;16.58;100.00;99429.31;4993817;28;20512;-54
2021/08/08 01:42:15;;;;;;;0.40;0.20;;;;;;;16.55;100.00;99432.22;4993715;28;20539;-54
2021/08/08 01:44:47;;;;;;;0.50;0.37;;;;;;;16.75;100.00;99426.41;4983460;28;20486;-54
2021/08/08 01:47:18;;;;;;;0.40;0.20;;;;;;;16.54;100.00;99431.34;4991965;28;20474;-54
2021/08/08 01:49:47;;;;;;;0.40;0.20;;;;;;;16.57;100.00;99430.28;4993788;28;20424;-54
2021/08/08 01:52:15;;;;;;;0.40;0.20;;;;;;;16.63;100.00;99432.56;4986676;28;20512;-54
2021/08/08 01:54:41;;;;;;;0.40;0.20;;;;;;;16.79;100.00;99427.91;4993610;28;20508;-54
2021/08/08 01:57:09;;;;;;;0.40;0.20;;;;;;;16.73;100.00;99439.09;4993419;28;20994;-54
2021/08/08 01:59:36;;;;;;;0.40;0.30;;;;;;;16.71;100.00;99437.44;4993827;28;20515;-54
2021/08/08 02:02:13;;;;;;;0.40;0.20;;;;;;;16.59;100.00;99439.97;4993482;28;20489;-54
2021/08/08 02:04:42;;;;;;;0.40;0.20;;;;;;;16.50;100.00;99437.91;4993386;28;20502;-55
2021/08/08 02:07:14;;;;;;;0.40;0.20;;;;;;;16.52;100.00;99435.09;4984737;28;20512;-54
2021/08/08 02:09:42;;;;;;;0.40;0.20;;;;;;;16.32;100.00;99424.84;4993241;28;20453;-54
2021/08/08 02:12:09;;;;;;;0.40;0.20;;;;;;;16.25;100.00;99429.75;4992453;28;20513;-54
2021/08/08 02:14:37;;;;;;;0.40;0.20;;;;;;;16.23;100.00;99432.53;4993085;28;20511;-54
2021/08/08 02:17:04;;;;;;;0.40;0.20;;;;;;;16.18;100.00;99428.44;4993518;28;20540;-54
2021/08/08 02:19:30;;;;;;;0.60;0.50;;;;;;;16.15;100.00;99445.56;4993216;28;20458;-54
2021/08/08 02:21:58;;;;;;;0.40;0.20;;;;;;;16.10;100.00;99450.38;4993222;28;20520;-54
2021/08/08 02:24:25;;;;;;;0.40;0.20;;;;;;;15.96;100.00;99443.22;4992940;28;20499;-54
2021/08/08 02:26:52;;;;;;;0.40;0.20;;;;;;;16.05;100.00;99452.50;4993083;28;20480;-53
2021/08/08 02:29:18;;;;;;;0.50;0.20;;;;;;;16.10;100.00;99442.34;4992005;28;20492;-54
2021/08/08 02:31:48;;;;;;;0.40;0.20;;;;;;;16.03;100.00;99446.34;4993268;28;20473;-54
2021/08/08 02:34:19;;;;;;;0.40;0.30;;;;;;;15.99;100.00;99447.53;4993472;28;20456;-54
2021/08/08 02:36:45;;;;;;;0.40;0.20;;;;;;;16.01;100.00;99450.97;4990789;28;20859;-54
2021/08/08 02:39:12;;;;;;;1.27;1.17;;;;;;;16.10;100.00;99441.47;4993163;28;20535;-54
2021/08/08 02:41:39;;;;;;;0.40;0.20;;;;;;;16.22;100.00;99448.72;4992802;28;20917;-54
2021/08/08 02:44:05;;;;;;;0.40;0.20;;;;;;;16.40;100.00;99449.34;4987649;28;20953;-54
2021/08/08 02:46:32;;;;;;;0.40;0.20;;;;;;;16.39;100.00;99447.59;4985528;28;20893;-54
2021/08/08 02:48:59;;;;;;;0.40;0.20;;;;;;;16.36;100.00;99448.69;4992921;28;20449;-54
2021/08/08 02:51:26;;;;;;;0.50;0.50;;;;;;;16.33;100.00;99442.66;4986842;28;20491;-54
2021/08/08 02:53:52;;;;;;;0.40;0.20;;;;;;;16.57;100.00;99446.38;4992062;28;20488;-54
2021/08/08 02:56:19;;;;;;;0.40;0.20;;;;;;;16.50;100.00;99448.63;4993029;28;20500;-54
2021/08/08 02:58:45;;;;;;;0.40;0.20;;;;;;;16.52;100.00;99451.19;4992961;28;20453;-54
2021/08/08 03:01:12;;;;;;;0.40;0.20;;;;;;;16.33;100.00;99451.56;4992824;28;20453;-54
2021/08/08 03:03:39;;;;;;;0.40;0.20;;;;;;;16.62;100.00;99452.31;4992689;28;20489;-54
2021/08/08 03:06:13;;;;;;;0.40;0.20;;;;;;;16.57;100.00;99455.28;4984816;28;20474;-55
2021/08/08 03:08:49;;;;;;;0.40;0.20;;;;;;;16.49;100.00;99449.59;4992991;28;20544;-54
2021/08/08 03:11:16;;;;;;;0.40;0.20;;;;;;;16.42;100.00;99464.34;4992792;28;20453;-54
2021/08/08 03:13:43;;;;;;;0.40;0.20;;;;;;;16.30;100.00;99459.78;4992841;28;20449;-55
2021/08/08 03:16:10;;;;;;;0.40;0.20;;;;;;;16.36;100.00;99459.41;4992587;28;20516;-54
2021/08/08 03:18:37;;;;;;;0.40;0.27;;;;;;;16.65;100.00;99462.84;4992637;28;20464;-54
2021/08/08 03:21:05;;;;;;;0.40;0.20;;;;;;;16.49;100.00;99471.06;4992846;28;20489;-54
2021/08/08 03:23:32;;;;;;;0.40;0.20;;;;;;;16.32;100.00;99475.81;4992608;28;21002;-54
2021/08/08 03:25:59;;;;;;;0.40;0.20;;;;;;;16.27;100.00;99479.63;4992452;28;20536;-55
2021/08/08 03:28:25;;;;;;;0.40;0.20;;;;;;;16.32;100.00;99489.22;4992747;28;20457;-54
2021/08/08 03:30:52;;;;;;;0.40;0.20;;;;;;;16.30;100.00;99491.97;4992475;28;20428;-54
2021/08/08 03:33:18;;;;;;;0.40;0.20;;;;;;;16.22;100.00;99500.53;4992584;28;20790;-54
2021/08/08 03:35:45;;;;;;;0.40;0.20;;;;;;;16.10;100.00;99504.00;4989997;28;20474;-54
2021/08/08 03:38:12;;;;;;;0.40;0.20;;;;;;;16.15;100.00;99512.59;4992411;28;20876;-56
2021/08/08 03:40:38;;;;;;;0.40;0.20;;;;;;;15.92;100.00;99524.81;4992453;28;20457;-54
2021/08/08 03:43:05;;;;;;;0.40;0.20;;;;;;;15.90;100.00;99529.41;4992346;28;20931;-54
2021/08/08 03:45:32;;;;;;;0.40;0.20;;;;;;;15.73;100.00;99526.03;4979058;28;20505;-54
2021/08/08 03:47:58;;;;;;;0.40;0.20;;;;;;;15.73;100.00;99531.38;4992511;28;20477;-54
2021/08/08 03:50:25;;;;;;;0.40;0.20;;;;;;;15.74;100.00;99527.75;4992350;28;20512;-54
2021/08/08 03:52:52;;;;;;;0.40;0.20;;;;;;;15.75;100.00;99537.50;4986433;28;20491;-54
2021/08/08 03:55:19;;;;;;;0.40;0.30;;;;;;;15.69;100.00;99536.94;4995606;28;20522;-55
2021/08/08 03:57:46;;;;;;;0.40;0.20;;;;;;;15.59;100.00;99533.09;4995769;28;20454;-54
2021/08/08 04:00:13;;;;;;;0.40;0.20;;;;;;;15.68;100.00;99540.59;4994282;28;20449;-54
2021/08/08 04:02:40;;;;;;;0.40;0.20;;;;;;;15.60;100.00;99548.22;4995685;28;20878;-54
2021/08/08 04:05:07;;;;;;;0.40;0.20;;;;;;;15.43;100.00;99559.06;4995307;28;20604;-54
2021/08/08 04:07:34;;;;;;;1.43;1.07;;;;;;;15.38;100.00;99571.88;4995497;28;20457;-54
2021/08/08 04:10:00;;;;;;;0.40;0.20;;;;;;;15.22;100.00;99576.44;4995317;28;20458;-54
2021/08/08 04:12:27;;;;;;;0.40;0.20;;;;;;;15.35;100.00;99578.28;4995230;28;20445;-54
2021/08/08 04:14:54;;;;;;;0.40;0.20;;;;;;;15.43;100.00;99585.84;4994871;28;20994;-54
2021/08/08 04:17:20;;;;;;;0.40;0.30;;;;;;;15.40;100.00;99591.41;4995637;28;20453;-54
2021/08/08 04:19:47;;;;;;;0.40;0.20;;;;;;;15.39;100.00;99589.69;4995269;28;20448;-54
2021/08/08 04:22:13;;;;;;;0.40;0.20;;;;;;;15.40;100.00;99589.59;4995475;28;20493;-54
2021/08/08 04:24:40;;;;;;;5.80;3.10;;;;;;;15.51;100.00;99596.97;4995024;28;20457;-54
2021/08/08 04:27:07;;;;;;;0.40;0.20;;;;;;;15.41;100.00;99593.97;4995335;28;20470;-55
2021/08/08 04:29:33;;;;;;;0.40;0.27;;;;;;;15.31;100.00;99598.16;4995125;28;20450;-54
2021/08/08 04:32:00;;;;;;;0.40;0.20;;;;;;;15.33;100.00;99595.38;4995368;28;20454;-56
2021/08/08 04:34:29;;;;;;;0.40;0.20;;;;;;;15.29;100.00;99596.53;4994910;28;20445;-54
2021/08/08 04:36:56;;;;;;;0.40;0.20;;;;;;;15.30;100.00;99599.09;4980694;28;20465;-54
2021/08/08 04:39:23;;;;;;;0.40;0.20;;;;;;;15.34;100.00;99597.97;4993880;28;20488;-54
2021/08/08 04:41:49;;;;;;;0.40;0.20;;;;;;;15.37;100.00;99597.81;4994860;28;20886;-54
2021/08/08 04:44:16;;;;;;;0.40;0.20;;;;;;;15.43;100.00;99601.91;4988238;28;20451;-54
2021/08/08 04:46:42;;;;;;;0.40;0.20;;;;;;;15.62;100.00;99602.59;4988951;28;20469;-55
2021/08/08 04:49:09;;;;;;;0.40;0.20;;;;;;;15.67;100.00;99605.84;4994974;28;20475;-55
2021/08/08 04:51:36;;;;;;;0.40;0.20;;;;;;;15.62;100.00;99599.03;4987731;28;20485;-56
2021/08/08 04:54:02;;;;;;;0.40;0.20;;;;;;;15.82;100.00;99604.06;4994751;28;20793;-55
2021/08/08 04:56:29;;;;;;;0.40;0.20;;;;;;;16.68;100.00;99606.72;4994383;28;20547;-55
2021/08/08 04:58:56;;;;;;;0.40;0.20;;;;;;;17.45;100.00;99622.19;4994757;28;21003;-56
2021/08/08 05:01:22;;;;;;;0.40;0.20;;;;;;;18.02;100.00;99620.03;4993458;28;20508;-56
2021/08/08 05:03:49;;;;;;;0.40;0.40;;;;;;;18.38;100.00;99629.19;4993792;28;20516;-56
2021/08/08 05:06:16;;;;;;;0.80;0.80;;;;;;;18.47;100.00;99636.56;4986244;28;20448;-56
2021/08/08 05:08:42;;;;;;;0.40;0.30;;;;;;;18.62;100.00;99634.59;4994415;28;20424;-56
2021/08/08 05:11:15;;;;;;;0.40;0.20;;;;;;;18.50;100.00;99624.72;4994282;28;20458;-56
2021/08/08 05:13:42;;;;;;;0.40;0.30;;;;;;;18.40;100.00;99631.75;4994728;28;20416;-55
2021/08/08 05:16:08;;;;;;;0.40;0.30;;;;;;;18.91;100.00;99641.47;4994447;28;20470;-55
2021/08/08 05:18:35;;;;;;;0.40;0.20;;;;;;;19.42;97.67;99629.59;4994440;28;20428;-56
2021/08/08 05:21:02;;;;;;;0.40;0.20;;;;;;;19.89;95.69;99638.66;4993087;28;20524;-56
2021/08/08 05:23:28;;;;;;;0.40;0.20;;;;;;;19.31;96.82;99643.88;4994084;28;20517;-56
2021/08/08 05:25:59;;;;;;;0.40;0.20;;;;;;;18.87;99.15;99641.81;5010595;23;20551;-57
2021/08/08 05:28:26;;;;;;;0.40;0.30;;;;;;;18.83;99.94;99641.16;5013608;28;20419;-57
2021/08/08 05:30:52;;;;;;;0.40;0.20;;;;;;;18.64;100.00;99648.88;5014791;28;20511;-57
2021/08/08 05:33:19;;;;;;;0.40;0.20;;;;;;;18.20;100.00;99650.16;5013657;28;20473;-56
2021/08/08 05:35:46;;;;;;;0.40;0.40;;;;;;;18.26;100.00;99656.94;5002171;28;20515;-57
2021/08/08 05:38:12;;;;;;;0.40;0.30;;;;;;;18.14;100.00;99671.25;4992443;28;20485;-57
2021/08/08 05:40:39;;;;;;;0.40;0.20;;;;;;;18.14;100.00;99674.81;4993808;28;20435;-57
2021/08/08 05:43:05;;;;;;;0.40;0.20;;;;;;;17.97;100.00;99673.28;4993921;28;20554;-57
2021/08/08 05:45:32;;;;;;;0.40;0.20;;;;;;;17.83;100.00;99673.38;4980422;28;20444;-57
2021/08/08 05:47:59;;;;;;;0.40;0.20;;;;;;;17.72;100.00;99674.09;4993598;28;20449;-56
2021/08/08 05:50:25;;;;;;;2.10;1.60;;;;;;;17.73;100.00;99672.28;4993371;28;20424;-56
2021/08/08 05:52:52;;;;;;;0.40;0.20;;;;;;;17.87;100.00;99676.72;4986339;28;20471;-57
2021/08/08 05:55:19;;;;;;;0.40;0.20;;;;;;;18.00;100.00;99673.06;4993485;28;20479;-57
2021/08/08 05:57:46;;;;;;;0.60;0.60;;;;;;;17.72;100.00;99671.41;4993535;28;20424;-56
2021/08/08 06:00:13;;;;;;;0.73;0.73;;;;;;;18.17;100.00;99681.78;4993315;28;20953;-56
2021/08/08 06:02:40;;;;;;;0.40;0.20;;;;;;;18.01;100.00;99680.19;4993201;28;21112;-57
2021/08/08 06:05:07;;;;;;;0.40;0.20;;;;;;;17.89;100.00;99690.91;4993636;28;20476;-57
2021/08/08 06:07:33;;;;;;;0.50;0.40;;;;;;;18.12;100.00;99695.59;4976503;28;20474;-57
2021/08/08 06:10:01;;;;;;;0.40;0.20;;;;;;;18.02;100.00;99700.72;4993243;28;20485;-56
2021/08/08 06:12:28;;;;;;;2.10;1.17;;;;;;;17.55;100.00;99706.59;4993468;28;20449;-57
2021/08/08 06:14:55;;;;;;;3.90;2.57;;;;;;;17.85;100.00;99700.16;4993111;28;20482;-56
2021/08/08 06:17:22;;;;;;;0.40;0.20;;;;;;;17.85;100.00;99702.84;4993139;28;20597;-57
2021/08/08 06:19:49;;;;;;;0.40;0.20;;;;;;;17.91;100.00;99703.28;4992914;28;20821;-57
2021/08/08 06:22:15;;;;;;;0.40;0.30;;;;;;;18.09;100.00;99702.97;4993164;28;20453;-56
2021/08/08 06:24:42;;;;;;;0.40;0.20;;;;;;;18.28;100.00;99719.59;4988164;28;20493;-57
2021/08/08 06:27:08;;;;;;;0.40;0.30;;;;;;;18.15;99.81;99721.41;4973358;28;20440;-57
2021/08/08 06:29:37;;;;;;;0.73;0.73;;;;;;;18.56;98.60;99719.38;4978748;28;20455;-56
2021/08/08 06:32:05;;;;;;;0.40;0.20;;;;;;;18.81;97.53;99726.59;4973786;28;20436;-56
2021/08/08 06:34:31;;;;;;;0.40;0.20;;;;;;;18.82;96.66;99730.16;4979760;28;20475;-57
2021/08/08 06:36:58;;;;;;;0.40;0.20;;;;;;;18.86;96.77;99724.44;4974952;28;20505;-57
2021/08/08 06:39:25;;;;;;;0.40;0.20;;;;;;;18.79;96.84;99738.47;4977986;28;20491;-57
2021/08/08 06:41:51;;;;;;;0.40;0.20;;;;;;;18.90;95.30;99743.91;4974709;28;20495;-57
2021/08/08 06:44:18;;;;;;;0.40;0.30;;;;;;;19.08;94.55;99733.66;4978930;28;20525;-57
2021/08/08 06:46:44;;;;;;;0.50;0.40;;;;;;;19.36;94.89;99735.19;4978213;28;20517;-57
2021/08/08 06:49:11;;;;;;;0.40;0.20;;;;;;;19.37;92.44;99736.94;4985840;28;20802;-57
2021/08/08 06:51:38;;;;;;;0.40;0.20;;;;;;;19.26;92.70;99732.31;4979184;28;20934;-57
2021/08/08 06:54:04;;;;;;;0.40;0.20;;;;;;;19.36;92.48;99738.75;4979549;28;20455;-57
2021/08/08 06:56:32;;;;;;;0.40;0.20;;;;;;;19.50;92.48;99737.75;4978066;28;20506;-57
2021/08/08 06:58:59;;;;;;;0.40;0.20;;;;;;;19.62;91.07;99744.09;4980666;28;20450;-57
2021/08/08 07:01:26;;;;;;;0.40;0.20;;;;;;;19.90;90.86;99732.94;4977957;28;20815;-57
2021/08/08 07:03:53;;;;;;;0.40;0.20;;;;;;;20.02;89.19;99729.31;4976486;28;20511;-57
2021/08/08 07:06:19;;;;;;;0.40;0.30;;;;;;;19.70;88.84;99734.44;4979268;28;20541;-57
2021/08/08 07:08:46;;;;;;;0.40;0.20;;;;;;;20.02;89.28;99747.34;4977727;28;20489;-57
2021/08/08 07:11:12;;;;;;;0.40;0.30;;;;;;;19.94;88.13;99741.66;4982783;28;20476;-57
2021/08/08 07:13:40;;;;;;;0.40;0.20;;;;;;;19.98;87.90;99754.78;4979354;28;20450;-57
2021/08/08 07:16:08;;;;;;;0.40;0.20;;;;;;;19.81;88.07;99755.22;4974894;28;20477;-58
2021/08/08 07:18:35;;;;;;;0.40;0.20;;;;;;;19.45;88.53;99759.63;4978655;28;20440;-57
2021/08/08 07:21:02;;;;;;;0.40;0.30;;;;;;;19.61;88.89;99766.63;4975208;28;20944;-58
2021/08/08 07:23:29;;;;;;;0.40;0.20;;;;;;;19.23;87.66;99759.50;4973147;28;20493;-57
2021/08/08 07:25:56;;;;;;;0.50;0.40;;;;;;;19.15;89.40;99756.47;4977817;28;20494;-57
2021/08/08 07:28:22;;;;;;;0.50;0.40;;;;;;;19.37;89.02;99763.88;4984848;28;20478;-57
2021/08/08 07:30:50;;;;;;;0.40;0.20;;;;;;;19.25;89.22;99768.31;4996414;28;20449;-57
2021/08/08 07:33:16;;;;;;;0.40;0.20;;;;;;;19.23;87.57;99772.97;4996369;28;20474;-57
2021/08/08 07:35:43;;;;;;;0.40;0.20;;;;;;;18.81;88.54;99769.69;4995021;28;20808;-57
2021/08/08 07:38:10;;;;;;;0.40;0.20;;;;;;;19.02;88.32;99769.97;4996314;28;20432;-58
2021/08/08 07:40:37;;;;;;;0.40;0.20;;;;;;;18.95;87.69;99774.09;4996178;28;20563;-57
2021/08/08 07:43:05;;;;;;;0.40;0.30;;;;;;;19.08;88.57;99782.16;4995988;28;20998;-58
2021/08/08 07:45:32;;;;;;;0.40;0.20;;;;;;;19.14;88.59;99785.25;4982505;28;20500;-58
2021/08/08 07:47:58;;;;;;;0.40;0.20;;;;;;;19.20;88.35;99784.84;4996255;28;20436;-57
2021/08/08 07:50:25;;;;;;;0.40;0.20;;;;;;;19.76;86.82;99777.13;4995866;28;20515;-57
2021/08/08 07:52:52;;;;;;;0.40;0.20;;;;;;;19.64;84.16;99793.38;4989023;28;20459;-58
2021/08/08 07:55:18;;;;;;;0.40;0.20;;;;;;;20.06;84.52;99792.84;4995725;28;20451;-57
2021/08/08 07:57:45;;;;;;;0.40;0.20;;;;;;;20.00;81.38;99805.94;4995717;28;20501;-57
2021/08/08 08:00:12;;;;;;;0.40;0.30;;;;;;;19.86;81.26;99808.81;4995905;28;20489;-57
2021/08/08 08:02:38;;;;;;;0.40;0.20;;;;;;;19.57;82.21;99802.88;4995757;28;20464;-57
2021/08/08 08:05:06;;;;;;;0.40;0.20;;;;;;;19.73;81.92;99803.44;4995608;28;20452;-57
2021/08/08 08:07:32;;;;;;;0.50;0.50;;;;;;;19.88;83.27;99802.34;4987022;28;20451;-58
2021/08/08 08:09:59;;;;;;;0.40;0.20;;;;;;;19.90;82.39;99804.91;4995402;28;20477;-58
2021/08/08 08:12:26;;;;;;;0.40;0.20;;;;;;;20.06;82.46;99800.09;4995818;28;20852;-57
2021/08/08 08:14:52;;;;;;;1.23;1.13;;;;;;;20.05;81.21;99811.84;4995582;28;20500;-57
2021/08/08 08:17:19;;;;;;;0.40;0.20;;;;;;;20.46;79.70;99813.28;4995630;28;20482;-57
2021/08/08 08:19:46;;;;;;;0.40;0.20;;;;;;;21.02;80.02;99805.25;4995402;28;20864;-58
2021/08/08 08:22:16;;;;;;;0.40;0.20;;;;;;;20.55;77.78;99802.59;4994342;28;20976;-58
2021/08/08 08:24:43;;;;;;;0.40;0.20;;;;;;;20.63;77.15;99812.81;4994857;28;21088;-58
2021/08/08 08:27:10;;;;;;;0.40;0.30;;;;;;;21.12;76.64;99809.81;4995247;28;20457;-57
2021/08/08 08:29:38;;;;;;;0.50;0.47;;;;;;;20.81;76.65;99814.06;4995244;28;20461;-58
2021/08/08 08:32:08;;;;;;;0.40;0.20;;;;;;;21.27;75.73;99816.72;4995276;28;20420;-58
2021/08/08 08:34:35;;;;;;;0.40;0.30;;;;;;;21.44;75.93;99796.44;4995121;28;20503;-58
2021/08/08 08:37:01;;;;;;;0.40;0.20;;;;;;;21.43;76.96;99805.53;4992726;28;20501;-58
2021/08/08 08:39:28;;;;;;;0.40;0.20;;;;;;;21.72;73.77;99800.44;4994744;28;20933;-58
2021/08/08 08:41:57;;;;;;;0.40;0.20;;;;;;;21.40;73.62;99804.94;4995014;28;20457;-57
2021/08/08 08:44:25;;;;;;;0.40;0.20;;;;;;;20.96;74.57;99810.16;4987347;28;20490;-58
2021/08/08 08:46:56;;;;;;;0.40;0.20;;;;;;;20.93;75.93;99809.53;4990001;28;20491;-58
2021/08/08 08:49:26;;;;;;;0.40;0.20;;;;;;;20.99;76.19;99820.75;4994960;28;20508;-58
2021/08/08 08:52:05;;;;;;;0.40;0.20;;;;;;;21.42;75.67;99817.34;4987610;28;20440;-58
2021/08/08 08:54:32;;;;;;;0.40;0.27;;;;;;;21.75;73.96;99820.97;4994926;28;20424;-58
2021/08/08 08:56:59;;;;;;;0.40;0.20;;;;;;;21.59;75.43;99815.94;4994557;28;20444;-58
2021/08/08 08:59:27;;;;;;;0.40;0.20;;;;;;;21.39;73.95;99824.84;4994714;28;20459;-58
2021/08/08 09:01:54;;;;;;;0.40;0.20;;;;;;;21.55;73.46;99831.59;4993440;28;20799;-57
2021/08/08 09:04:21;;;;;;;0.40;0.20;;;;;;;21.16;74.11;99832.91;4994515;28;20463;-58
2021/08/08 09:06:48;;;;;;;0.40;0.20;;;;;;;21.60;74.01;99833.91;4985972;28;20476;-58
2021/08/08 09:09:15;;;;;;;0.40;0.30;;;;;;;22.10;74.33;99837.88;4994538;28;20460;-58
2021/08/08 09:11:44;;;;;;;0.40;0.20;;;;;;;21.26;72.46;99833.06;4994502;28;20453;-58
2021/08/08 09:14:14;;;;;;;5.60;1.57;;;;;;;21.17;73.23;99844.59;4994441;28;20471;-58
2021/08/08 09:16:44;;;;;;;0.40;0.20;;;;;;;21.55;72.88;99847.81;4994072;28;20520;-58
2021/08/08 09:19:25;;;;;;;0.53;0.37;;;;;;;21.95;71.06;99847.25;4994751;28;20453;-58
2021/08/08 09:21:53;;;;;;;0.40;0.20;;;;;;;21.89;72.77;99858.56;4971822;28;20477;-58
2021/08/08 09:24:34;;;;;;;0.90;0.90;;;;;;;21.32;73.70;99850.63;4994136;28;20495;-58
2021/08/08 09:27:06;;;;;;;0.40;0.30;;;;;;;21.22;73.56;99870.25;4994123;28;20477;-57
2021/08/08 09:29:35;;;;;;;0.40;0.20;;;;;;;21.54;72.52;99858.75;4994235;28;20423;-58
2021/08/08 09:32:03;;;;;;;0.40;0.20;;;;;;;21.72;68.21;99853.69;4994067;28;20477;-57
2021/08/08 09:34:35;;;;;;;0.40;0.30;;;;;;;21.97;69.25;99856.09;4994020;28;20432;-57
2021/08/08 09:37:05;;;;;;;0.40;0.30;;;;;;;22.06;67.48;99855.34;4991308;28;20945;-57
2021/08/08 09:39:41;;;;;;;0.50;0.40;;;;;;;22.19;68.68;99852.47;4993926;28;20993;-57
2021/08/08 09:42:14;;;;;;;0.40;0.20;;;;;;;21.97;66.06;99847.97;4993777;28;21021;-57
2021/08/08 09:45:03;;;;;;;0.40;0.30;;;;;;;22.14;68.61;99855.56;4983771;28;21070;-57
2021/08/08 09:47:37;;;;;;;0.40;0.30;;;;;;;22.05;70.31;99867.16;4993896;28;20453;-57
2021/08/08 09:50:06;;;;;;;0.40;0.20;;;;;;;21.76;68.34;99865.97;4982606;28;20533;-57
2021/08/08 09:52:34;;;;;;;0.40;0.30;;;;;;;22.01;67.80;99859.41;4978945;28;20458;-57
2021/08/08 09:55:15;;;;;;;0.40;0.20;;;;;;;22.04;67.43;99859.13;4974542;28;20481;-56
2021/08/08 09:57:42;;;;;;;0.40;0.20;;;;;;;22.33;68.96;99865.72;4971439;28;20454;-56
2021/08/08 10:00:23;;;;;;;0.40;0.20;;;;;;;22.03;68.38;99861.00;4975164;28;20878;-58
2021/08/08 10:02:50;;;;;;;0.40;0.20;;;;;;;21.95;69.48;99854.50;4975121;28;20458;-58
2021/08/08 10:05:17;;;;;;;0.40;0.30;;;;;;;21.76;68.48;99849.72;4975249;28;21082;-58
2021/08/08 10:07:46;;;;;;;0.40;0.30;;;;;;;21.57;69.30;99847.69;4975198;28;20470;-58
2021/08/08 10:10:13;;;;;;;0.40;0.20;;;;;;;22.10;69.12;99853.25;4992858;28;20942;-58
2021/08/08 10:13:07;;;;;;;0.40;0.20;;;;;;;22.44;68.04;99860.25;4993304;28;20461;-58
2021/08/08 10:15:43;;;;;;;0.40;0.20;;;;;;;21.98;70.38;99849.69;4974907;28;20520;-58
2021/08/08 10:18:15;;;;;;;0.40;0.20;;;;;;;21.44;71.64;99850.50;4993204;28;20473;-58
2021/08/08 10:20:42;;;;;;;0.40;0.20;;;;;;;21.79;69.78;99839.53;4991796;28;20428;-59
2021/08/08 10:23:14;;;;;;;0.40;0.20;;;;;;;22.04;71.63;99846.47;4993210;28;20424;-58
2021/08/08 10:25:43;;;;;;;0.50;0.50;;;;;;;21.86;71.74;99839.88;4992850;28;20473;-58
2021/08/08 10:28:10;;;;;;;0.53;0.40;;;;;;;22.17;69.71;99849.03;4992863;28;20459;-58
2021/08/08 10:30:38;;;;;;;0.40;0.20;;;;;;;22.39;71.18;99858.94;4993404;28;20480;-58
2021/08/08 10:33:06;;;;;;;0.40;0.20;;;;;;;21.96;69.24;99846.25;4992909;28;20438;-58
2021/08/08 10:35:42;;;;;;;0.40;0.30;;;;;;;22.29;69.98;99848.00;4989630;28;20966;-58
2021/08/08 10:38:10;;;;;;;0.40;0.30;;;;;;;21.86;70.65;99845.28;4992796;28;20477;-58
2021/08/08 10:40:37;;;;;;;2.97;1.07;;;;;;;22.03;71.06;99850.16;4992927;28;20827;-58
2021/08/08 10:43:06;;;;;;;0.40;0.20;;;;;;;22.02;71.09;99851.16;4992782;28;20458;-58
2021/08/08 10:45:37;;;;;;;0.40;0.20;;;;;;;22.11;70.32;99854.97;4979671;28;20841;-58
2021/08/08 10:48:06;;;;;;;0.40;0.20;;;;;;;22.22;69.53;99859.50;4993032;28;20477;-58
2021/08/08 10:50:44;;;;;;;1.43;0.70;;;;;;;22.51;69.71;99855.19;4992441;28;20490;-57
2021/08/08 10:53:21;;;;;;;0.40;0.20;;;;;;;22.99;69.48;99849.25;4980101;28;20445;-58
2021/08/08 10:55:50;;;;;;;0.67;0.67;;;;;;;22.79;68.92;99855.53;4992607;28;20508;-58
2021/08/08 10:58:17;;;;;;;0.40;0.20;;;;;;;22.72;68.29;99858.75;4992505;28;20461;-58
2021/08/08 11:00:44;;;;;;;0.40;0.20;;;;;;;22.85;68.72;99853.19;4992985;28;20519;-58
2021/08/08 11:03:16;;;;;;;0.50;0.40;;;;;;;23.20;69.26;99847.41;4995837;28;21014;-58
2021/08/08 11:05:44;;;;;;;0.40;0.20;;;;;;;22.56;70.69;99854.78;4991663;28;20498;-58
2021/08/08 11:08:12;;;;;;;0.97;0.97;;;;;;;22.60;70.58;99854.38;4993536;28;20767;-58
2021/08/08 11:10:44;;;;;;;0.40;0.20;;;;;;;22.35;69.32;99852.94;4996704;28;20453;-58
2021/08/08 11:13:20;;;;;;;0.40;0.20;;;;;;;23.13;68.46;99856.19;4996631;28;20420;-58
2021/08/08 11:15:47;;;;;;;0.40;0.30;;;;;;;22.52;68.94;99858.75;4996648;28;20465;-58
2021/08/08 11:18:14;;;;;;;0.40;0.27;;;;;;;22.03;71.63;99858.28;4996501;28;20503;-58
2021/08/08 11:20:41;;;;;;;0.40;0.30;;;;;;;22.52;72.64;99853.34;4996568;28;20458;-58
2021/08/08 11:23:08;;;;;;;0.40;0.30;;;;;;;22.39;70.64;99851.66;4996644;28;20458;-58
2021/08/08 11:25:44;;;;;;;0.40;0.20;;;;;;;22.64;70.52;99857.72;4996149;28;20683;-56
2021/08/08 11:28:10;;;;;;;0.40;0.20;;;;;;;22.87;68.80;99853.91;4994882;28;20445;-56
2021/08/08 11:30:43;;;;;;;0.60;0.50;;;;;;;22.47;69.09;99859.13;4996167;28;20477;-55
2021/08/08 11:33:11;;;;;;;0.40;0.20;;;;;;;22.78;68.58;99851.97;4996123;28;20966;-56